Time;durP1;ratioP1;P1;durP2;ratioP2;P2;SDS_P1;SDS_P2;PMS_P1;PMS_P2;Temp;Humidity;BMP_temperature;BMP_pressure;BME280_temperature;BME280_humidity;BME280_pressure;Samples;Min_cycle;Max_cycle;Signal;HPM_P1;HPM_P2
2023/07/29 00:02:15;;;;;;;3.75;2.10;;;;;18.30;95985.00;;;;8285901;28;20588;-68
2023/07/29 00:06:20;;;;;;;5.03;2.38;;;;;18.30;95984.00;;;;8284075;28;20202;-68
2023/07/29 00:10:25;;;;;;;3.72;2.25;;;;;18.20;95975.00;;;;8290757;28;20212;-66
2023/07/29 00:14:34;;;;;;;2.85;2.35;;;;;18.20;95982.00;;;;8287140;28;20291;-67
2023/07/29 00:18:37;;;;;;;8.20;2.60;;;;;18.30;95985.00;;;;8286982;28;20575;-67
2023/07/29 00:22:41;;;;;;;3.08;2.33;;;;;18.20;95977.00;;;;8283712;28;20286;-65
2023/07/29 00:26:47;;;;;;;2.53;2.28;;;;;18.30;95980.00;;;;8298116;28;20237;-68
2023/07/29 00:30:52;;;;;;;3.90;2.42;;;;;18.20;95995.00;;;;8278595;28;20229;-64
2023/07/29 00:35:00;;;;;;;5.82;2.53;;;;;18.20;95992.00;;;;8277396;28;20293;-64
2023/07/29 00:39:12;;;;;;;7.32;2.65;;;;;18.20;95981.00;;;;8285666;28;20655;-66
2023/07/29 00:43:20;;;;;;;3.28;2.72;;;;;18.20;95977.00;;;;8285682;28;20206;-66
2023/07/29 00:47:26;;;;;;;9.05;2.85;;;;;18.10;95976.00;;;;8291365;28;20298;-66
2023/07/29 00:51:30;;;;;;;6.03;2.95;;;;;18.10;95987.00;;;;8285876;28;20221;-65
2023/07/29 00:55:33;;;;;;;4.85;2.95;;;;;18.10;95982.00;;;;8284822;28;20929;-65
2023/07/29 00:59:40;;;;;;;5.22;2.42;;;;;18.10;95973.00;;;;8292025;28;20839;-66
2023/07/29 01:03:45;;;;;;;7.28;3.17;;;;;18.00;95962.00;;;;8283922;28;20238;-65
2023/07/29 01:07:54;;;;;;;5.47;3.20;;;;;18.00;95957.00;;;;8289684;28;20210;-67
2023/07/29 01:12:08;;;;;;;6.78;3.83;;;;;18.00;95949.00;;;;8284701;28;20313;-64
2023/07/29 01:16:19;;;;;;;8.48;3.67;;;;;18.00;95956.00;;;;8291329;28;20365;-64
2023/07/29 01:20:26;;;;;;;7.93;3.90;;;;;18.10;95963.00;;;;8281959;28;20206;-66
2023/07/29 01:24:30;;;;;;;7.22;3.70;;;;;18.10;95974.00;;;;8284816;28;20305;-64
2023/07/29 01:28:34;;;;;;;5.03;3.90;;;;;18.10;95965.00;;;;8285903;28;20571;-66
2023/07/29 01:32:44;;;;;;;5.15;3.97;;;;;18.20;95958.00;;;;8286158;28;20901;-66
2023/07/29 01:36:49;;;;;;;6.82;3.90;;;;;18.20;95931.00;;;;8280908;28;20207;-66
2023/07/29 01:40:56;;;;;;;7.50;4.20;;;;;18.20;95945.00;;;;8285493;28;20237;-66
2023/07/29 01:45:00;;;;;;;5.57;3.92;;;;;18.20;95950.00;;;;8283257;28;20723;-65
2023/07/29 01:49:05;;;;;;;9.63;4.55;;;;;18.20;95951.00;;;;8267688;28;20318;-66
2023/07/29 01:53:08;;;;;;;9.82;4.90;;;;;18.20;95959.00;;;;8283715;28;20244;-65
2023/07/29 01:57:12;;;;;;;7.20;4.28;;;;;18.20;95958.00;;;;8282090;28;20237;-66
2023/07/29 02:01:16;;;;;;;8.23;4.13;;;;;18.20;95957.00;;;;8280491;28;20237;-65
2023/07/29 02:05:19;;;;;;;9.32;4.93;;;;;18.20;95954.00;;;;8282229;28;20222;-68
2023/07/29 02:09:22;;;;;;;12.50;4.93;;;;;18.20;95954.00;;;;8282722;28;20296;-65
2023/07/29 02:13:27;;;;;;;9.75;4.82;;;;;18.30;95954.00;;;;8282711;28;20246;-66
2023/07/29 02:17:33;;;;;;;18.58;5.43;;;;;18.30;95957.00;;;;8282990;28;20232;-65
2023/07/29 02:21:36;;;;;;;12.90;4.47;;;;;18.30;95953.00;;;;8281999;28;20297;-67
2023/07/29 02:25:39;;;;;;;10.57;5.05;;;;;18.40;95964.00;;;;8281599;28;20281;-66
2023/07/29 02:29:44;;;;;;;12.15;5.40;;;;;18.40;95961.00;;;;8282768;28;20237;-65
2023/07/29 02:33:47;;;;;;;14.23;5.53;;;;;18.40;95970.00;;;;8289683;28;20261;-68
2023/07/29 02:37:50;;;;;;;10.63;5.35;;;;;18.40;95965.00;;;;8283804;28;20679;-65
2023/07/29 02:41:55;;;;;;;17.90;5.57;;;;;18.40;95962.00;;;;8281190;28;20249;-65
2023/07/29 02:46:00;;;;;;;11.95;5.40;;;;;18.30;95949.00;;;;8265049;28;20230;-64
2023/07/29 02:50:06;;;;;;;17.50;5.63;;;;;18.10;95952.00;;;;8283277;28;20294;-65
2023/07/29 02:54:11;;;;;;;18.38;5.97;;;;;18.00;95947.00;;;;8283149;28;20313;-66
2023/07/29 02:58:17;;;;;;;11.80;5.18;;;;;17.90;95946.00;;;;8289393;28;20223;-66
2023/07/29 03:02:24;;;;;;;14.43;5.28;;;;;17.70;95934.00;;;;8355371;22;20226;-65
2023/07/29 03:06:27;;;;;;;101.68;8.30;;;;;17.60;95940.00;;;;8278753;28;20206;-67
2023/07/29 03:10:30;;;;;;;90.47;7.47;;;;;17.50;95934.00;;;;8280704;28;20214;-66
2023/07/29 03:14:35;;;;;;;33.22;6.05;;;;;17.30;95937.00;;;;8282097;28;20896;-66
2023/07/29 03:18:40;;;;;;;16.92;5.75;;;;;17.20;95919.00;;;;8283220;28;20202;-66
2023/07/29 03:22:47;;;;;;;131.52;5.63;;;;;17.00;95916.00;;;;8281874;28;20236;-66
2023/07/29 03:26:50;;;;;;;334.13;13.13;;;;;16.90;95919.00;;;;8280740;28;20216;-66
2023/07/29 03:30:56;;;;;;;146.43;8.55;;;;;16.70;95924.00;;;;8291180;28;20309;-66
2023/07/29 03:35:05;;;;;;;32.47;5.70;;;;;16.60;95917.00;;;;8277323;28;20852;-65
2023/07/29 03:39:08;;;;;;;71.32;6.25;;;;;16.50;95916.00;;;;8299732;28;20288;-66
2023/07/29 03:43:13;;;;;;;25.95;5.63;;;;;16.40;95919.00;;;;8289974;28;20213;-66
2023/07/29 03:47:16;;;;;;;123.47;7.13;;;;;16.40;95936.00;;;;8290525;28;20210;-68
2023/07/29 03:51:21;;;;;;;218.43;8.70;;;;;16.30;95932.00;;;;8308883;28;20327;-65
2023/07/29 03:55:32;;;;;;;144.90;8.38;;;;;16.30;95924.00;;;;8295355;28;20234;-67
2023/07/29 03:59:35;;;;;;;102.50;6.85;;;;;16.30;95930.00;;;;8297343;28;20818;-65
2023/07/29 04:03:45;;;;;;;121.18;7.00;;;;;16.30;95924.00;;;;8287808;28;20683;-67
2023/07/29 04:07:50;;;;;;;94.13;6.35;;;;;16.30;95924.00;;;;8292233;28;20275;-69
2023/07/29 04:11:53;;;;;;;85.72;6.00;;;;;16.30;95935.00;;;;8296792;28;20205;-65
2023/07/29 04:16:02;;;;;;;119.10;7.63;;;;;16.30;95924.00;;;;8287859;28;20297;-66
2023/07/29 04:20:07;;;;;;;37.97;5.63;;;;;16.40;95927.00;;;;8294175;28;20214;-67
2023/07/29 04:24:12;;;;;;;39.20;6.05;;;;;16.60;95921.00;;;;8292084;28;20206;-68
2023/07/29 04:28:16;;;;;;;23.45;5.72;;;;;16.80;95922.00;;;;8289152;28;20216;-65
2023/07/29 04:32:21;;;;;;;24.10;7.82;;;;;17.00;95922.00;;;;8279612;28;20230;-65
2023/07/29 04:36:30;;;;;;;30.90;8.52;;;;;17.10;95926.00;;;;8293900;28;20206;-66
2023/07/29 04:40:35;;;;;;;34.95;10.18;;;;;17.30;95920.00;;;;8291277;28;20223;-66
2023/07/29 04:44:43;;;;;;;36.20;10.90;;;;;17.40;95919.00;;;;8292115;28;20206;-68
2023/07/29 04:48:46;;;;;;;37.53;10.10;;;;;17.60;95920.00;;;;8287522;28;20210;-67
2023/07/29 04:52:50;;;;;;;47.33;10.50;;;;;17.80;95925.00;;;;8291745;28;20237;-70
2023/07/29 04:57:00;;;;;;;41.40;10.90;;;;;18.00;95914.00;;;;8295203;28;20213;-66
2023/07/29 05:01:05;;;;;;;29.88;9.98;;;;;18.30;95914.00;;;;8298237;28;20202;-67
2023/07/29 05:05:11;;;;;;;39.90;11.77;;;;;18.50;95911.00;;;;8309377;28;20729;-67
2023/07/29 05:09:18;;;;;;;37.67;11.43;;;;;18.60;95915.00;;;;8314425;28;21190;-68
2023/07/29 05:13:23;;;;;;;41.33;11.98;;;;;18.70;95917.00;;;;8291468;28;20285;-66
2023/07/29 05:17:26;;;;;;;40.28;11.52;;;;;18.70;95917.00;;;;8288713;28;20638;-67
2023/07/29 05:21:32;;;;;;;42.55;12.43;;;;;18.70;95916.00;;;;8290560;28;20209;-68
2023/07/29 05:25:35;;;;;;;46.55;14.02;;;;;18.90;95916.00;;;;8287254;28;20662;-70
2023/07/29 05:29:41;;;;;;;47.42;13.30;;;;;19.20;95899.00;;;;8307843;28;20206;-69
2023/07/29 05:33:44;;;;;;;44.85;13.77;;;;;19.40;95899.00;;;;8284617;28;20571;-71
2023/07/29 05:37:50;;;;;;;47.97;14.35;;;;;19.80;95917.00;;;;8285887;28;20671;-72
2023/07/29 05:41:54;;;;;;;33.28;12.70;;;;;20.30;95912.00;;;;8283404;28;20206;-69
2023/07/29 05:45:59;;;;;;;34.78;12.57;;;;;20.90;95906.00;;;;8277061;28;20306;-71
2023/07/29 05:50:08;;;;;;;26.65;10.63;;;;;21.20;95915.00;;;;8284338;28;20242;-69
2023/07/29 05:54:18;;;;;;;25.92;9.73;;;;;21.30;95918.00;;;;8279299;28;20234;-72
2023/07/29 05:58:21;;;;;;;28.20;10.50;;;;;21.40;95920.00;;;;8291096;28;20272;-70
2023/07/29 06:02:28;;;;;;;21.55;9.57;;;;;21.50;95911.00;;;;8292337;28;20241;-74
2023/07/29 06:06:33;;;;;;;27.27;10.48;;;;;21.50;95910.00;;;;8273716;28;20229;-70
2023/07/29 06:10:37;;;;;;;21.92;9.88;;;;;21.30;95904.00;;;;8284935;28;20289;-70
2023/07/29 06:14:43;;;;;;;26.00;10.25;;;;;21.30;95900.00;;;;8295663;28;20340;-75
2023/07/29 06:18:48;;;;;;;27.50;9.57;;;;;21.30;95903.00;;;;8304769;28;20363;-73
2023/07/29 06:22:52;;;;;;;24.77;10.25;;;;;21.40;95918.00;;;;8283160;28;20202;-74
2023/07/29 06:26:55;;;;;;;30.00;10.77;;;;;21.50;95912.00;;;;8283753;28;20790;-71
2023/07/29 06:30:58;;;;;;;22.88;10.82;;;;;21.80;95916.00;;;;8278264;28;20301;-72
2023/07/29 06:35:06;;;;;;;23.55;9.30;;;;;22.10;95917.00;;;;8281983;28;20305;-69
2023/07/29 06:39:11;;;;;;;17.77;8.98;;;;;22.30;95916.00;;;;8295065;28;20215;-69
2023/07/29 06:43:16;;;;;;;14.23;8.57;;;;;22.30;95918.00;;;;8286394;28;20209;-72
2023/07/29 06:47:24;;;;;;;15.13;8.52;;;;;22.30;95921.00;;;;8296511;28;20205;-69
2023/07/29 06:51:32;;;;;;;12.75;8.27;;;;;22.40;95930.00;;;;8286428;28;20221;-71
2023/07/29 06:55:37;;;;;;;14.18;9.05;;;;;22.50;95931.00;;;;8284115;28;20658;-76
2023/07/29 06:59:40;;;;;;;12.23;7.65;;;;;22.30;95944.00;;;;8296797;28;20213;-73
2023/07/29 07:03:46;;;;;;;13.30;6.93;;;;;21.90;95937.00;;;;8284552;28;20325;-72
2023/07/29 07:07:51;;;;;;;9.73;6.40;;;;;21.70;95942.00;;;;8277099;28;20486;-67
2023/07/29 07:11:54;;;;;;;10.82;6.38;;;;;21.50;95930.00;;;;8280078;28;20713;-70
2023/07/29 07:15:57;;;;;;;11.23;6.43;;;;;21.60;95927.00;;;;8282753;28;20314;-67
2023/07/29 07:20:04;;;;;;;8.20;5.70;;;;;21.50;95914.00;;;;8286993;28;20730;-71
2023/07/29 07:24:10;;;;;;;12.77;5.72;;;;;21.40;95902.00;;;;8294727;28;20209;-75
2023/07/29 07:28:13;;;;;;;8.35;5.70;;;;;21.50;95906.00;;;;8274457;28;20213;-67
2023/07/29 07:32:16;;;;;;;6.50;5.22;;;;;21.50;95921.00;;;;8286269;28;20783;-71
2023/07/29 07:36:20;;;;;;;6.65;4.95;;;;;21.60;95942.00;;;;8288289;28;20571;-81
2023/07/29 07:40:26;;;;;;;10.15;5.03;;;;;21.40;95941.00;;;;8295542;28;20248;-70
2023/07/29 07:44:29;;;;;;;5.82;5.22;;;;;21.50;95942.00;;;;8295122;28;20206;-68
2023/07/29 07:48:37;;;;;;;5.93;4.45;;;;;21.60;95945.00;;;;8301121;28;20293;-74
2023/07/29 07:52:40;;;;;;;7.20;3.97;;;;;21.40;95953.00;;;;8292591;28;20288;-70
2023/07/29 07:56:44;;;;;;;5.22;4.38;;;;;21.20;95963.00;;;;8292447;28;20247;-72
2023/07/29 08:00:47;;;;;;;8.43;5.10;;;;;20.50;95993.00;;;;8303218;28;20238;-71
2023/07/29 08:04:56;;;;;;;15.82;6.57;;;;;19.80;95980.00;;;;8280645;28;20230;-73
2023/07/29 08:08:59;;;;;;;10.27;6.13;;;;;19.50;95986.00;;;;8280299;28;20202;-77
2023/07/29 08:13:05;;;;;;;8.00;4.63;;;;;19.20;95990.00;;;;8294274;28;20305;-72
2023/07/29 08:17:09;;;;;;;7.70;3.53;;;;;18.80;95974.00;;;;8302592;28;20936;-71
2023/07/29 08:21:12;;;;;;;10.48;3.92;;;;;18.50;95949.00;;;;8298325;28;20206;-70
2023/07/29 08:25:15;;;;;;;7.70;4.18;;;;;18.40;95944.00;;;;8305846;28;20212;-69
2023/07/29 08:29:19;;;;;;;8.60;4.60;;;;;18.40;95935.00;;;;8289738;28;20202;-72
2023/07/29 08:33:22;;;;;;;8.93;5.03;;;;;18.50;95913.00;;;;8300959;28;20293;-71
2023/07/29 08:37:26;;;;;;;7.03;4.53;;;;;18.50;95943.00;;;;8300441;28;20214;-72
2023/07/29 08:41:38;;;;;;;9.45;5.38;;;;;18.50;95914.00;;;;8287464;28;20288;-73
2023/07/29 08:45:45;;;;;;;7.88;4.40;;;;;18.60;95935.00;;;;8284011;28;20203;-72
2023/07/29 08:49:51;;;;;;;5.68;3.90;;;;;18.70;95916.00;;;;8300629;28;20205;-70
2023/07/29 08:53:55;;;;;;;4.50;3.10;;;;;18.80;95907.00;;;;8287762;28;20240;-69
2023/07/29 08:57:59;;;;;;;5.22;3.22;;;;;19.00;95905.00;;;;8299325;28;20293;-68
2023/07/29 09:02:03;;;;;;;5.13;3.55;;;;;19.20;95911.00;;;;8279118;28;20216;-67
2023/07/29 09:06:10;;;;;;;5.28;3.90;;;;;19.50;95918.00;;;;8290093;28;20280;-67
2023/07/29 09:10:15;;;;;;;5.63;4.22;;;;;19.80;95916.00;;;;8288195;28;20202;-67
2023/07/29 09:14:18;;;;;;;5.22;4.35;;;;;20.10;95917.00;;;;8301685;28;20750;-67
2023/07/29 09:18:23;;;;;;;4.85;4.25;;;;;20.30;95901.00;;;;8289797;28;20656;-67
2023/07/29 09:22:28;;;;;;;3.97;3.65;;;;;20.50;95910.00;;;;8283705;28;20317;-67
2023/07/29 09:26:31;;;;;;;4.55;3.45;;;;;20.50;95908.00;;;;8303928;28;20209;-67
2023/07/29 09:30:34;;;;;;;5.70;3.70;;;;;20.40;95910.00;;;;8277315;28;20210;-67
2023/07/29 09:34:47;;;;;;;4.65;3.80;;;;;20.50;95908.00;;;;8288734;28;20801;-67
2023/07/29 09:38:56;;;;;;;3.95;3.40;;;;;20.50;95918.00;;;;8290541;28;20230;-67
2023/07/29 09:43:04;;;;;;;4.55;3.55;;;;;20.80;95916.00;;;;8271515;28;20281;-66
2023/07/29 09:47:07;;;;;;;6.95;3.35;;;;;21.10;95917.00;;;;8277758;28;20202;-66
2023/07/29 09:51:15;;;;;;;4.13;3.13;;;;;21.50;95916.00;;;;8279414;28;20337;-67
2023/07/29 09:55:20;;;;;;;5.85;3.10;;;;;21.50;95941.00;;;;8276953;28;20729;-68
2023/07/29 09:59:29;;;;;;;3.75;3.08;;;;;21.10;95957.00;;;;8282058;28;20245;-68
2023/07/29 10:03:37;;;;;;;7.80;3.47;;;;;20.60;95952.00;;;;8282029;28;20234;-69
2023/07/29 10:07:46;;;;;;;6.35;4.35;;;;;20.20;95942.00;;;;8295016;28;20213;-72
2023/07/29 10:11:53;;;;;;;5.88;4.03;;;;;19.80;95939.00;;;;8281405;28;20202;-72
2023/07/29 10:15:57;;;;;;;8.02;3.85;;;;;19.60;95929.00;;;;8288025;28;20229;-70
2023/07/29 10:20:01;;;;;;;6.88;5.03;;;;;19.60;95923.00;;;;8280407;28;20241;-70
2023/07/29 10:24:11;;;;;;;6.65;5.03;;;;;19.60;95942.00;;;;8276881;28;20208;-69
2023/07/29 10:28:18;;;;;;;9.13;6.00;;;;;19.70;95926.00;;;;8266277;28;20980;-71
2023/07/29 10:32:27;;;;;;;7.13;4.40;;;;;19.90;95924.00;;;;8277800;28;20209;-72
2023/07/29 10:36:30;;;;;;;6.43;4.45;;;;;20.10;95908.00;;;;8295328;28;20292;-71
2023/07/29 10:40:49;;;;;;;5.07;3.45;;;;;21.30;95907.00;;;;8275307;28;20241;-71
2023/07/29 10:44:56;;;;;;;5.10;3.15;;;;;22.10;95919.00;;;;8269632;28;20297;-70
2023/07/29 10:48:59;;;;;;;5.97;3.22;;;;;22.10;95928.00;;;;8275148;28;20301;-69
2023/07/29 10:53:02;;;;;;;3.67;3.00;;;;;22.40;95917.00;;;;8292830;28;20959;-70
2023/07/29 10:57:07;;;;;;;3.30;3.00;;;;;23.00;95920.00;;;;8290492;28;20316;-71
2023/07/29 11:01:14;;;;;;;3.10;2.30;;;;;23.60;95920.00;;;;8279660;28;20197;-70
2023/07/29 11:05:19;;;;;;;2.95;2.20;;;;;24.30;95917.00;;;;8308636;28;20663;-70
2023/07/29 11:09:41;;;;;;;2.22;2.13;;;;;24.30;95928.00;;;;8289727;28;20300;-70
2023/07/29 11:13:49;;;;;;;2.60;1.88;;;;;24.70;95922.00;;;;8297463;28;20210;-70
2023/07/29 11:17:54;;;;;;;2.00;1.90;;;;;24.70;95935.00;;;;8289499;28;20235;-70
2023/07/29 11:21:58;;;;;;;4.05;2.03;;;;;24.60;95933.00;;;;8288197;28;20202;-70
2023/07/29 11:26:04;;;;;;;2.05;1.95;;;;;25.10;95924.00;;;;8291525;28;20778;-70
2023/07/29 11:30:14;;;;;;;2.30;2.08;;;;;25.80;95912.00;;;;8299988;28;20205;-70
2023/07/29 11:34:20;;;;;;;1.85;1.73;;;;;26.10;95919.00;;;;8300434;28;20963;-72
2023/07/29 11:38:25;;;;;;;2.28;2.00;;;;;26.40;95911.00;;;;8293965;28;20750;-70
2023/07/29 11:42:28;;;;;;;1.95;1.70;;;;;26.70;95913.00;;;;8289382;28;20723;-70
2023/07/29 11:46:48;;;;;;;3.78;2.25;;;;;26.40;95910.00;;;;8290480;28;20300;-70
2023/07/29 11:50:52;;;;;;;3.58;1.98;;;;;26.30;95913.00;;;;8291106;28;20258;-71
2023/07/29 11:55:01;;;;;;;2.75;1.52;;;;;26.00;95906.00;;;;8293995;28;20256;-71
2023/07/29 11:59:05;;;;;;;2.60;1.77;;;;;25.70;95907.00;;;;8292765;28;20202;-69
2023/07/29 12:03:10;;;;;;;2.10;2.00;;;;;25.90;95885.00;;;;8280521;28;20258;-71
2023/07/29 12:07:15;;;;;;;1.98;1.60;;;;;25.80;95883.00;;;;8289953;28;20939;-70
2023/07/29 12:11:18;;;;;;;1.60;1.50;;;;;26.20;95881.00;;;;8289984;28;20240;-70
2023/07/29 12:15:26;;;;;;;1.60;1.50;;;;;26.90;95882.00;;;;8310105;28;20221;-70
2023/07/29 12:19:35;;;;;;;2.65;1.80;;;;;27.00;95886.00;;;;8300337;28;20205;-69
2023/07/29 12:23:38;;;;;;;2.20;2.00;;;;;27.20;95894.00;;;;8303157;28;20296;-70
2023/07/29 12:27:44;;;;;;;2.20;2.00;;;;;27.30;95889.00;;;;8297534;28;20738;-70
2023/07/29 12:31:50;;;;;;;2.45;1.90;;;;;27.50;95887.00;;;;8275399;28;20691;-69
2023/07/29 12:35:55;;;;;;;2.03;1.85;;;;;26.90;95874.00;;;;8296045;28;20934;-68
2023/07/29 12:39:58;;;;;;;2.00;1.90;;;;;26.40;95872.00;;;;8302283;28;20198;-70
2023/07/29 12:44:07;;;;;;;2.15;1.70;;;;;25.80;95881.00;;;;8288561;28;20242;-69
2023/07/29 12:48:13;;;;;;;2.22;2.10;;;;;25.40;95877.00;;;;8291037;28;20215;-69
2023/07/29 12:52:18;;;;;;;3.22;1.80;;;;;25.10;95877.00;;;;8274375;28;20279;-69
2023/07/29 12:56:22;;;;;;;1.88;1.77;;;;;25.20;95878.00;;;;8284530;28;20715;-72
2023/07/29 13:00:27;;;;;;;1.80;1.63;;;;;25.20;95885.00;;;;8276679;28;20213;-69
2023/07/29 13:04:32;;;;;;;2.20;2.00;;;;;25.10;95890.00;;;;8274505;28;20230;-70
2023/07/29 13:08:36;;;;;;;2.10;1.90;;;;;25.20;95882.00;;;;8274017;28;20202;-68
2023/07/29 13:12:40;;;;;;;2.53;2.00;;;;;25.10;95869.00;;;;8274971;28;20206;-71
2023/07/29 13:16:43;;;;;;;2.53;2.13;;;;;25.30;95856.00;;;;8277711;28;20234;-68
2023/07/29 13:20:47;;;;;;;3.35;2.15;;;;;25.60;95858.00;;;;8279210;28;20206;-67
2023/07/29 13:24:51;;;;;;;1.80;1.70;;;;;25.70;95849.00;;;;8276313;28;20237;-68
2023/07/29 13:29:05;;;;;;;2.60;1.90;;;;;25.70;95852.00;;;;8274749;28;20213;-66
2023/07/29 13:33:11;;;;;;;2.67;1.90;;;;;26.20;95856.00;;;;8277986;28;20217;-70
2023/07/29 13:37:15;;;;;;;1.77;1.67;;;;;26.90;95849.00;;;;8277566;28;20635;-69
2023/07/29 13:41:21;;;;;;;1.95;1.85;;;;;27.50;95852.00;;;;8277445;28;20222;-69
2023/07/29 13:45:26;;;;;;;1.92;1.83;;;;;27.80;95846.00;;;;8277326;28;20290;-71
2023/07/29 13:49:30;;;;;;;2.28;1.60;;;;;28.20;95858.00;;;;8273685;28;20201;-69
2023/07/29 13:53:33;;;;;;;1.80;1.70;;;;;28.10;95863.00;;;;8268185;28;20206;-66
2023/07/29 13:57:41;;;;;;;3.35;1.90;;;;;28.00;95854.00;;;;8274049;28;20229;-68
2023/07/29 14:01:45;;;;;;;1.95;1.80;;;;;28.30;95869.00;;;;8277385;28;20652;-68
2023/07/29 14:05:48;;;;;;;4.90;1.65;;;;;28.30;95864.00;;;;8275442;28;20299;-72
2023/07/29 14:09:52;;;;;;;1.63;1.60;;;;;28.20;95862.00;;;;8266457;28;21080;-71
2023/07/29 14:14:06;;;;;;;1.70;1.60;;;;;28.10;95865.00;;;;8274537;28;20648;-69
2023/07/29 14:18:09;;;;;;;1.88;1.77;;;;;28.30;95857.00;;;;8276237;28;20237;-71
2023/07/29 14:22:14;;;;;;;1.77;1.70;;;;;28.50;95847.00;;;;8274412;28;20326;-76
2023/07/29 14:26:18;;;;;;;2.00;1.90;;;;;29.00;95849.00;;;;8276997;28;20230;-72
2023/07/29 14:30:25;;;;;;;2.10;2.00;;;;;29.30;95852.00;;;;8273633;28;20212;-70
2023/07/29 14:34:29;;;;;;;1.80;1.70;;;;;29.50;95852.00;;;;8269709;28;20210;-71
2023/07/29 14:38:35;;;;;;;1.90;1.80;;;;;29.60;95854.00;;;;8276932;28;21049;-67
2023/07/29 14:42:38;;;;;;;1.42;1.42;;;;;29.70;95861.00;;;;8275418;28;20290;-72
2023/07/29 14:46:47;;;;;;;2.38;1.67;;;;;29.50;95855.00;;;;8276000;28;20199;-69
2023/07/29 14:50:50;;;;;;;1.75;1.65;;;;;29.70;95852.00;;;;8279276;28;20295;-70
2023/07/29 14:54:56;;;;;;;1.75;1.65;;;;;29.70;95854.00;;;;8276775;28;20213;-73
2023/07/29 14:59:00;;;;;;;1.38;1.38;;;;;29.30;95839.00;;;;8275271;28;20239;-70
2023/07/29 15:03:07;;;;;;;1.33;1.33;;;;;29.00;95837.00;;;;8270504;28;20223;-71
2023/07/29 15:07:12;;;;;;;1.70;1.60;;;;;28.90;95829.00;;;;8271848;28;20496;-69
2023/07/29 15:11:18;;;;;;;1.92;1.75;;;;;28.70;95837.00;;;;8270423;28;20588;-69
2023/07/29 15:15:25;;;;;;;1.55;1.55;;;;;28.80;95834.00;;;;8270871;28;20247;-66
2023/07/29 15:19:30;;;;;;;1.60;1.60;;;;;28.50;95841.00;;;;8271791;28;20840;-69
2023/07/29 15:23:33;;;;;;;1.45;1.35;;;;;28.30;95831.00;;;;8269830;28;20882;-71
2023/07/29 15:27:38;;;;;;;1.95;1.85;;;;;28.50;95831.00;;;;8277267;28;20775;-67
2023/07/29 15:31:42;;;;;;;1.73;1.63;;;;;28.80;95831.00;;;;8276961;28;20811;-69
2023/07/29 15:35:46;;;;;;;1.48;1.38;;;;;28.90;95823.00;;;;8275706;28;20249;-67
2023/07/29 15:39:52;;;;;;;2.47;1.70;;;;;28.80;95830.00;;;;8272761;28;20276;-72
2023/07/29 15:43:55;;;;;;;2.80;1.70;;;;;28.60;95822.00;;;;8273025;28;20202;-75
2023/07/29 15:47:59;;;;;;;2.00;1.90;;;;;28.40;95821.00;;;;8277802;28;20724;-73
2023/07/29 15:52:08;;;;;;;1.90;1.77;;;;;28.10;95834.00;;;;8276937;28;20209;-76
2023/07/29 15:56:15;;;;;;;1.95;1.85;;;;;28.10;95833.00;;;;8279549;28;20215;-69
2023/07/29 16:00:19;;;;;;;1.60;1.50;;;;;28.30;95825.00;;;;8275940;28;20759;-76
2023/07/29 16:04:22;;;;;;;1.90;1.80;;;;;28.50;95821.00;;;;8277789;28;20329;-67
2023/07/29 16:08:28;;;;;;;2.15;2.00;;;;;28.70;95831.00;;;;8280012;28;20202;-68
2023/07/29 16:12:35;;;;;;;6.70;2.05;;;;;28.60;95832.00;;;;8276298;28;20207;-66
2023/07/29 16:16:41;;;;;;;2.00;1.90;;;;;28.60;95837.00;;;;8275325;28;20225;-68
2023/07/29 16:20:46;;;;;;;2.15;1.80;;;;;28.60;95838.00;;;;8273999;28;20193;-68
2023/07/29 16:24:51;;;;;;;2.00;1.90;;;;;28.70;95840.00;;;;8304392;28;20544;-68
2023/07/29 16:28:55;;;;;;;2.20;2.00;;;;;28.80;95842.00;;;;8287579;28;20288;-69
2023/07/29 16:32:58;;;;;;;1.80;1.60;;;;;29.10;95842.00;;;;8286544;28;20890;-68
2023/07/29 16:37:06;;;;;;;2.00;1.90;;;;;28.50;95842.00;;;;8304229;28;20582;-68
2023/07/29 16:41:11;;;;;;;3.05;1.85;;;;;28.20;95845.00;;;;8295822;28;20237;-66
2023/07/29 16:45:38;;;;;;;3.85;1.80;;;;;28.50;95849.00;;;;8292460;28;20286;-67
2023/07/29 16:49:41;;;;;;;6.20;1.85;;;;;28.50;95850.00;;;;8286370;28;20763;-65
2023/07/29 16:53:45;;;;;;;1.73;1.63;;;;;28.20;95848.00;;;;8288320;28;20293;-65
2023/07/29 16:57:50;;;;;;;2.00;1.90;;;;;28.00;95849.00;;;;8289054;28;20236;-68
2023/07/29 17:01:53;;;;;;;1.60;1.60;;;;;27.90;95850.00;;;;8286377;28;20206;-65
2023/07/29 17:05:57;;;;;;;2.40;1.90;;;;;27.70;95856.00;;;;8294589;28;20222;-68
2023/07/29 17:10:00;;;;;;;1.98;1.88;;;;;27.20;95865.00;;;;8286122;28;20360;-68
2023/07/29 17:14:04;;;;;;;2.13;1.92;;;;;26.90;95865.00;;;;8304574;28;20217;-67
2023/07/29 17:18:10;;;;;;;1.80;1.70;;;;;26.90;95868.00;;;;8303059;28;20654;-67
2023/07/29 17:22:17;;;;;;;1.88;1.77;;;;;26.90;95864.00;;;;8295800;28;20202;-67
2023/07/29 17:26:21;;;;;;;3.40;1.70;;;;;26.80;95861.00;;;;8294585;28;20212;-68
2023/07/29 17:30:27;;;;;;;1.90;1.80;;;;;26.70;95861.00;;;;8313050;28;20269;-65
2023/07/29 17:34:34;;;;;;;2.10;2.00;;;;;26.70;95861.00;;;;8283378;28;20309;-67
2023/07/29 17:38:37;;;;;;;2.13;2.03;;;;;26.70;95865.00;;;;8294545;28;20240;-67
2023/07/29 17:42:40;;;;;;;3.97;2.10;;;;;27.20;95873.00;;;;8295153;28;20726;-68
2023/07/29 17:46:44;;;;;;;1.80;1.73;;;;;27.40;95866.00;;;;8284275;28;20333;-66
2023/07/29 17:50:49;;;;;;;1.85;1.75;;;;;27.20;95882.00;;;;8283498;28;20201;-66
2023/07/29 17:54:58;;;;;;;1.92;1.80;;;;;27.30;95878.00;;;;8292516;28;20229;-69
2023/07/29 17:59:03;;;;;;;2.05;1.95;;;;;27.60;95871.00;;;;8288815;28;20218;-67
2023/07/29 18:03:08;;;;;;;2.13;2.03;;;;;27.40;95878.00;;;;8277117;28;20236;-68
2023/07/29 18:07:12;;;;;;;2.50;1.83;;;;;26.80;95875.00;;;;8288786;28;20255;-66
2023/07/29 18:11:18;;;;;;;1.95;1.80;;;;;26.30;95892.00;;;;8283232;28;20198;-66
2023/07/29 18:15:23;;;;;;;2.22;2.03;;;;;25.80;95905.00;;;;8292821;28;20694;-66
2023/07/29 18:19:30;;;;;;;2.03;1.92;;;;;25.40;95898.00;;;;8290607;28;20222;-66
2023/07/29 18:23:33;;;;;;;3.60;1.92;;;;;25.10;95911.00;;;;8275392;28;20299;-67
2023/07/29 18:27:37;;;;;;;2.13;2.03;;;;;24.80;95911.00;;;;8283052;28;20212;-67
2023/07/29 18:31:41;;;;;;;2.05;1.85;;;;;24.50;95914.00;;;;8293445;28;20212;-69
2023/07/29 18:35:46;;;;;;;1.90;1.80;;;;;24.30;95916.00;;;;8279606;28;20230;-64
2023/07/29 18:39:50;;;;;;;3.75;2.25;;;;;23.90;95921.00;;;;8283137;28;20260;-70
2023/07/29 18:43:57;;;;;;;2.72;2.00;;;;;23.60;95929.00;;;;8300674;28;20719;-67
2023/07/29 18:48:01;;;;;;;2.03;1.92;;;;;23.20;95930.00;;;;8284216;28;20584;-65
2023/07/29 18:52:11;;;;;;;1.85;1.75;;;;;22.90;95921.00;;;;8296311;28;20809;-67
2023/07/29 18:56:15;;;;;;;2.50;2.28;;;;;22.60;95922.00;;;;8283009;28;20738;-69
2023/07/29 19:00:18;;;;;;;2.25;2.10;;;;;22.30;95926.00;;;;8281033;28;20313;-66
2023/07/29 19:04:23;;;;;;;2.10;1.98;;;;;22.10;95922.00;;;;8289898;28;20317;-67
2023/07/29 19:08:28;;;;;;;2.30;2.10;;;;;21.90;95928.00;;;;8290193;28;20218;-66
2023/07/29 19:12:34;;;;;;;2.42;1.95;;;;;21.80;95928.00;;;;8295452;28;20209;-68
2023/07/29 19:16:39;;;;;;;3.38;2.25;;;;;21.60;95929.00;;;;8299308;28;20240;-66
2023/07/29 19:20:44;;;;;;;2.30;2.20;;;;;21.60;95930.00;;;;8298872;28;20320;-66
2023/07/29 19:24:50;;;;;;;2.70;2.50;;;;;21.50;95936.00;;;;8281805;28;20206;-68
2023/07/29 19:28:55;;;;;;;4.13;2.42;;;;;21.30;95938.00;;;;8291772;28;20255;-64
2023/07/29 19:33:01;;;;;;;3.22;2.40;;;;;21.30;95952.00;;;;8287299;28;20298;-65
2023/07/29 19:37:07;;;;;;;3.53;2.80;;;;;21.20;95963.00;;;;8289341;28;20299;-67
2023/07/29 19:41:13;;;;;;;2.42;2.20;;;;;21.10;95948.00;;;;8286788;28;20247;-67
2023/07/29 19:45:19;;;;;;;2.40;2.20;;;;;21.10;95948.00;;;;8301461;28;20613;-66
2023/07/29 19:49:22;;;;;;;5.72;2.67;;;;;21.00;95950.00;;;;8293277;28;20307;-66
2023/07/29 19:53:25;;;;;;;3.70;3.00;;;;;21.00;95955.00;;;;8296701;28;20221;-66
2023/07/29 19:57:33;;;;;;;3.20;3.00;;;;;20.90;95962.00;;;;8290061;28;20297;-66
2023/07/29 20:01:40;;;;;;;3.45;3.10;;;;;20.80;95945.00;;;;8287576;28;20988;-67
2023/07/29 20:05:43;;;;;;;3.50;2.78;;;;;20.80;95970.00;;;;8289678;28;20238;-67
2023/07/29 20:09:48;;;;;;;4.80;2.90;;;;;20.70;95960.00;;;;8290942;28;20206;-67
2023/07/29 20:13:54;;;;;;;2.90;2.67;;;;;20.70;95952.00;;;;8286146;28;20208;-66
2023/07/29 20:17:57;;;;;;;3.67;2.80;;;;;20.70;95958.00;;;;8285012;28;20240;-67
2023/07/29 20:22:07;;;;;;;3.10;2.90;;;;;20.70;95948.00;;;;8290603;28;20199;-66